createdAt,value
2022-08-05T00:00:02.025Z,98983.29
2022-08-05T00:02:11.402Z,98981.67
2022-08-05T00:04:17.553Z,98981.60
2022-08-05T00:06:32.462Z,98980.59
2022-08-05T00:08:38.490Z,98981.13
2022-08-05T00:10:43.291Z,98980.83
2022-08-05T00:12:56.350Z,98978.89
2022-08-05T00:15:54.225Z,98976.66
2022-08-05T00:17:26.579Z,98977.09
2022-08-05T00:19:33.845Z,98974.45
2022-08-05T00:21:50.778Z,98970.85
2022-08-05T00:24:11.011Z,98972.08
2022-08-05T00:26:17.696Z,98966.77
2022-08-05T00:28:29.512Z,98967.91
2022-08-05T00:30:34.984Z,98965.10
2022-08-05T00:32:41.132Z,98962.18
2022-08-05T00:35:04.133Z,98960.73
2022-08-05T00:37:14.264Z,98961.48
2022-08-05T00:39:19.372Z,98953.81
2022-08-05T00:41:52.043Z,98957.85
2022-08-05T00:43:57.153Z,98951.11
2022-08-05T00:46:02.021Z,98950.66
2022-08-05T00:48:08.286Z,98948.56
2022-08-05T00:50:14.535Z,98949.23
2022-08-05T00:52:28.458Z,98947.63
2022-08-05T00:54:33.711Z,98946.55
2022-08-05T00:56:38.793Z,98942.18
2022-08-05T00:58:56.279Z,98941.60
2022-08-05T01:01:01.799Z,98940.16
2022-08-05T01:03:22.686Z,98945.21
2022-08-05T01:05:28.532Z,98941.77
2022-08-05T01:07:33.399Z,98939.52
2022-08-05T01:09:38.359Z,98935.85
2022-08-05T01:11:43.985Z,98933.65
2022-08-05T01:14:00.258Z,98930.36
2022-08-05T01:16:13.004Z,98929.45
2022-08-05T01:18:25.041Z,98927.21
2022-08-05T01:20:40.627Z,98926.18
2022-08-05T01:23:13.598Z,98928.54
2022-08-05T01:25:40.199Z,98922.21
2022-08-05T01:28:13.540Z,98927.00
2022-08-05T01:30:18.793Z,98922.98
2022-08-05T01:32:27.716Z,98922.73
2022-08-05T01:34:36.357Z,98925.19
2022-08-05T01:36:47.082Z,98922.91
2022-08-05T01:38:53.336Z,98922.93
2022-08-05T01:41:00.002Z,98921.16
2022-08-05T01:43:09.759Z,98921.46
2022-08-05T01:45:34.745Z,98919.23
2022-08-05T01:47:43.174Z,98918.48
2022-08-05T01:50:01.704Z,98915.27
2022-08-05T01:52:17.418Z,98916.65
2022-08-05T01:54:25.651Z,98915.86
2022-08-05T01:58:11.342Z,98916.31
2022-08-05T01:59:01.081Z,98912.70
2022-08-05T02:01:08.181Z,98912.51
2022-08-05T02:03:29.089Z,98909.23
2022-08-05T02:05:38.948Z,98911.46
2022-08-05T02:07:57.822Z,98910.10
2022-08-05T02:10:07.875Z,98914.98
2022-08-05T02:12:18.545Z,98911.65
2022-08-05T02:14:32.059Z,98909.45
2022-08-05T02:16:45.012Z,98906.83
2022-08-05T02:18:53.290Z,98903.58
2022-08-05T02:21:05.689Z,98902.29
2022-08-05T02:23:13.719Z,98898.02
2022-08-05T02:25:24.724Z,98904.27
2022-08-05T02:27:58.547Z,98905.04
2022-08-05T02:30:02.059Z,98905.11
2022-08-05T02:32:11.236Z,98904.98
2022-08-05T02:34:18.171Z,98905.19
2022-08-05T02:36:27.487Z,98904.55
2022-08-05T02:38:37.766Z,98905.06
2022-08-05T02:40:44.880Z,98904.00
2022-08-05T02:42:54.325Z,98906.09
2022-08-05T02:45:01.740Z,98902.09
2022-08-05T02:47:09.026Z,98901.48
2022-08-05T02:49:17.328Z,98895.19
2022-08-05T02:51:28.168Z,98896.41
2022-08-05T02:53:49.699Z,98895.23
2022-08-05T02:56:02.045Z,98896.26
2022-08-05T02:58:11.318Z,98892.67
2022-08-05T03:00:27.028Z,98896.62
2022-08-05T03:02:37.480Z,98893.02
2022-08-05T03:04:43.756Z,98889.05
2022-08-05T03:06:55.891Z,98891.60
2022-08-05T03:09:05.192Z,98889.61
2022-08-05T03:11:56.028Z,98888.58
2022-08-05T03:13:51.426Z,98887.48
2022-08-05T03:16:07.788Z,98887.64
2022-08-05T03:18:14.775Z,98886.85
2022-08-05T03:20:22.265Z,98887.64
2022-08-05T03:22:32.399Z,98882.34
2022-08-05T03:24:40.666Z,98882.77
2022-08-05T03:26:51.839Z,98881.15
2022-08-05T03:28:56.615Z,98879.42
2022-08-05T03:31:02.988Z,98879.80
2022-08-05T03:33:08.115Z,98877.66
2022-08-05T03:35:13.497Z,98875.86
2022-08-05T03:37:18.680Z,98878.16
2022-08-05T03:39:27.320Z,98881.16
2022-08-05T03:41:32.933Z,98878.78
2022-08-05T03:44:09.663Z,98881.90
2022-08-05T03:46:04.319Z,98885.21
2022-08-05T03:48:09.217Z,98886.74
2022-08-05T03:50:14.127Z,98890.50
2022-08-05T03:52:38.383Z,98894.24
2022-08-05T03:56:05.686Z,98888.90
2022-08-05T03:57:35.146Z,98889.69
2022-08-05T03:59:54.875Z,98894.02
2022-08-05T04:02:01.786Z,98893.95
2022-08-05T04:04:10.965Z,98892.98
2022-08-05T04:06:17.989Z,98892.16
2022-08-05T04:08:35.155Z,98884.40
2022-08-05T04:10:42.177Z,98889.99
2022-08-05T04:12:48.005Z,98887.88
2022-08-05T04:14:53.091Z,98882.86
2022-08-05T04:17:04.715Z,98882.11
2022-08-05T04:19:12.936Z,98881.19
2022-08-05T04:21:45.749Z,98882.30
2022-08-05T04:24:05.344Z,98880.98
2022-08-05T04:26:08.236Z,98884.73
2022-08-05T04:28:18.814Z,98888.13
2022-08-05T04:30:24.450Z,98886.40
2022-08-05T04:32:33.332Z,98883.52
2022-08-05T04:34:42.708Z,98885.12
2022-08-05T04:36:50.402Z,98885.23
2022-08-05T04:38:55.294Z,98883.27
2022-08-05T04:41:01.860Z,98885.52
2022-08-05T04:43:11.040Z,98885.90
2022-08-05T04:45:31.244Z,98883.52
2022-08-05T04:47:47.359Z,98881.64
2022-08-05T04:50:01.782Z,98884.47
2022-08-05T04:52:11.404Z,98885.80
2022-08-05T04:54:16.537Z,98888.14
2022-08-05T04:56:34.537Z,98888.95
2022-08-05T04:58:41.323Z,98883.88
2022-08-05T05:00:46.538Z,98878.75
2022-08-05T05:03:03.748Z,98880.81
2022-08-05T05:05:16.527Z,98881.50
2022-08-05T05:07:32.098Z,98879.62
2022-08-05T05:09:38.129Z,98879.83
2022-08-05T05:11:53.084Z,98879.63
2022-08-05T05:14:00.687Z,98877.79
2022-08-05T05:16:07.776Z,98877.30
2022-08-05T05:18:15.058Z,98883.84
2022-08-05T05:20:33.848Z,98881.52
2022-08-05T05:22:40.934Z,98881.60
2022-08-05T05:24:58.799Z,98880.91
2022-08-05T05:27:04.713Z,98883.91
2022-08-05T05:29:14.472Z,98880.20
2022-08-05T05:31:19.845Z,98882.84
2022-08-05T05:33:25.960Z,98880.41
2022-08-05T05:35:37.781Z,98881.59
2022-08-05T05:37:59.413Z,98882.56
2022-08-05T05:40:07.132Z,98885.52
2022-08-05T05:42:12.509Z,98882.56
2022-08-05T05:44:36.432Z,98880.86
2022-08-05T05:46:42.402Z,98880.07
2022-08-05T05:48:49.218Z,98879.91
2022-08-05T05:50:54.091Z,98876.06
2022-08-05T05:52:59.201Z,98874.23
2022-08-05T05:55:13.151Z,98877.27
2022-08-05T05:57:19.321Z,98878.59
2022-08-05T05:59:24.197Z,98880.14
2022-08-05T06:01:37.566Z,98883.16
2022-08-05T06:04:01.214Z,98885.50
2022-08-05T06:06:09.018Z,98884.69
2022-08-05T06:08:13.753Z,98884.81
2022-08-05T06:10:18.529Z,98890.91
2022-08-05T06:12:23.555Z,98894.75
2022-08-05T06:14:33.245Z,98889.83
2022-08-05T06:16:39.311Z,98889.84
2022-08-05T06:18:44.045Z,98891.10
2022-08-05T06:20:54.297Z,98891.49
2022-08-05T06:22:59.995Z,98892.98
2022-08-05T06:25:59.142Z,98893.14
2022-08-05T06:28:10.685Z,98891.79
2022-08-05T06:30:04.431Z,98893.08
2022-08-05T06:32:21.051Z,98897.12
2022-08-05T06:34:30.777Z,98898.37
2022-08-05T06:36:53.548Z,98902.18
2022-08-05T06:39:00.553Z,98906.86
2022-08-05T06:41:07.978Z,98910.67
2022-08-05T06:43:59.154Z,98912.66
2022-08-05T06:45:44.945Z,98910.84
2022-08-05T06:48:44.119Z,98913.39
2022-08-05T06:50:28.138Z,98908.32
2022-08-05T06:52:37.937Z,98907.45
2022-08-05T06:54:45.261Z,98904.07
2022-08-05T06:57:58.139Z,98903.84
2022-08-05T06:59:21.640Z,98900.06
2022-08-05T07:01:32.276Z,98902.68
2022-08-05T07:03:37.741Z,98899.73
2022-08-05T07:05:42.615Z,98895.75
2022-08-05T07:07:47.510Z,98896.89
2022-08-05T07:09:55.454Z,98894.71
2022-08-05T07:12:03.337Z,98897.89
2022-08-05T07:14:15.440Z,98901.55
2022-08-05T07:18:02.207Z,98901.84
2022-08-05T07:18:50.395Z,98901.55
2022-08-05T07:20:56.448Z,98902.04
2022-08-05T07:23:01.854Z,98901.65
2022-08-05T07:25:22.633Z,98900.33
2022-08-05T07:27:58.099Z,98899.86
2022-08-05T07:30:24.715Z,98902.20
2022-08-05T07:32:26.379Z,98898.58
2022-08-05T07:34:31.297Z,98897.41
2022-08-05T07:36:37.462Z,98898.25
2022-08-05T07:38:44.162Z,98896.23
2022-08-05T07:40:49.052Z,98897.50
2022-08-05T07:43:04.711Z,98895.47
2022-08-05T07:45:19.532Z,98901.15
2022-08-05T07:47:44.744Z,98897.89
2022-08-05T07:49:54.327Z,98892.11
2022-08-05T07:51:59.589Z,98892.78
2022-08-05T07:54:04.762Z,98893.16
2022-08-05T07:56:39.338Z,98895.05
2022-08-05T07:58:58.644Z,98895.00
2022-08-05T08:00:59.944Z,98896.84
2022-08-05T08:03:13.609Z,98896.52
2022-08-05T08:05:19.425Z,98899.73
2022-08-05T08:07:24.576Z,98897.41
2022-08-05T08:09:33.344Z,98899.55
2022-08-05T08:11:47.480Z,98900.40
2022-08-05T08:14:01.186Z,98896.31
2022-08-05T08:16:35.878Z,98896.31
2022-08-05T08:18:31.571Z,98899.48
2022-08-05T08:20:59.934Z,98902.42
2022-08-05T08:23:03.226Z,98895.27
2022-08-05T08:25:15.837Z,98893.95
2022-08-05T08:27:22.191Z,98892.23
2022-08-05T08:30:04.067Z,98890.52
2022-08-05T08:32:06.466Z,98889.34
2022-08-05T08:34:15.746Z,98889.79
2022-08-05T08:36:29.666Z,98890.05
2022-08-05T08:38:53.430Z,98895.08
2022-08-05T08:40:59.918Z,98892.67
2022-08-05T08:44:56.416Z,98890.13
2022-08-05T08:45:31.734Z,98885.05
2022-08-05T08:48:06.915Z,98882.48
2022-08-05T08:50:32.240Z,98879.70
2022-08-05T08:52:33.043Z,98878.04
2022-08-05T08:54:38.573Z,98875.78
2022-08-05T08:56:47.632Z,98878.38
2022-08-05T08:58:54.958Z,98879.10
2022-08-05T09:01:03.680Z,98877.86
2022-08-05T09:03:09.217Z,98876.10
2022-08-05T09:05:17.929Z,98876.02
2022-08-05T09:07:28.437Z,98875.84
2022-08-05T09:09:35.521Z,98878.11
2022-08-05T09:11:53.637Z,98876.47
2022-08-05T09:14:54.359Z,98876.33
2022-08-05T09:16:26.832Z,98877.50
2022-08-05T09:18:33.140Z,98877.95
2022-08-05T09:20:38.448Z,98877.73
2022-08-05T09:23:19.583Z,98881.93
2022-08-05T09:26:02.328Z,98879.77
2022-08-05T09:28:04.775Z,98877.49
2022-08-05T09:30:16.325Z,98877.20
2022-08-05T09:32:40.378Z,98877.27
2022-08-05T09:34:56.988Z,98878.80
2022-08-05T09:37:16.911Z,98876.95
2022-08-05T09:39:22.183Z,98875.31
2022-08-05T09:41:28.108Z,98878.45
2022-08-05T09:43:41.651Z,98876.16
2022-08-05T09:46:06.298Z,98877.92
2022-08-05T09:48:26.854Z,98876.61
2022-08-05T09:50:44.492Z,98877.45
2022-08-05T09:52:58.730Z,98875.14
2022-08-05T09:55:56.289Z,98874.77
2022-08-05T09:57:35.382Z,98872.40
2022-08-05T09:59:49.133Z,98872.44
2022-08-05T10:01:58.151Z,98873.27
2022-08-05T10:04:10.303Z,98874.74
2022-08-05T10:06:19.408Z,98870.84
2022-08-05T10:08:37.548Z,98874.14
2022-08-05T10:10:50.411Z,98872.52
2022-08-05T10:13:01.256Z,98869.80
2022-08-05T10:15:34.389Z,98869.00
2022-08-05T10:17:42.407Z,98866.62
2022-08-05T10:20:04.149Z,98862.11
2022-08-05T10:22:15.535Z,98860.56
2022-08-05T10:24:35.226Z,98859.39
2022-08-05T10:26:49.012Z,98860.06
2022-08-05T10:28:56.968Z,98858.75
2022-08-05T10:32:49.238Z,98859.98
2022-08-05T10:33:28.794Z,98864.38
2022-08-05T10:35:40.537Z,98861.73
2022-08-05T10:37:49.676Z,98855.95
2022-08-05T10:40:03.661Z,98860.10
2022-08-05T10:42:33.437Z,98854.76
2022-08-05T10:44:44.003Z,98855.36
2022-08-05T10:46:54.321Z,98860.30
2022-08-05T10:49:09.996Z,98849.80
2022-08-05T10:51:22.275Z,98849.69
2022-08-05T10:53:54.459Z,98846.30
2022-08-05T10:56:14.619Z,98842.96
2022-08-05T10:58:47.708Z,98844.71
2022-08-05T11:00:55.305Z,98843.19
2022-08-05T11:03:23.890Z,98840.34
2022-08-05T11:05:31.854Z,98834.76
2022-08-05T11:08:03.298Z,98833.58
2022-08-05T11:10:27.589Z,98833.58
2022-08-05T11:12:54.352Z,98829.03
2022-08-05T11:15:19.113Z,98824.53
2022-08-05T11:17:59.486Z,98822.48
2022-08-05T11:20:11.015Z,98819.94
2022-08-05T11:22:42.123Z,98821.32
2022-08-05T11:26:03.217Z,98820.27
2022-08-05T11:27:50.095Z,98814.42
2022-08-05T11:30:02.583Z,98817.46
2022-08-05T11:32:28.364Z,98814.17
2022-08-05T11:34:52.063Z,98812.13
2022-08-05T11:36:59.147Z,98811.04
2022-08-05T11:39:04.220Z,98814.92
2022-08-05T11:41:54.709Z,98817.16
2022-08-05T11:44:01.070Z,98817.20
2022-08-05T11:46:23.484Z,98817.77
2022-08-05T11:48:29.682Z,98814.34
2022-08-05T11:50:40.958Z,98821.02
2022-08-05T11:52:48.472Z,98822.36
2022-08-05T11:54:58.337Z,98819.39
2022-08-05T11:57:08.288Z,98818.37
2022-08-05T11:59:31.877Z,98821.61
2022-08-05T12:01:59.910Z,98816.94
2022-08-05T12:04:04.896Z,98815.73
2022-08-05T12:06:10.914Z,98813.95
2022-08-05T12:08:17.940Z,98812.66
2022-08-05T12:10:43.771Z,98811.30
2022-08-05T12:12:59.366Z,98819.18
2022-08-05T12:15:05.697Z,98816.91
2022-08-05T12:18:02.605Z,98820.61
2022-08-05T12:20:26.677Z,98821.77
2022-08-05T12:22:11.605Z,98819.41
2022-08-05T12:24:18.290Z,98818.41
2022-08-05T12:26:23.952Z,98819.35
2022-08-05T12:28:37.132Z,98815.41
2022-08-05T12:30:46.148Z,98813.13
2022-08-05T12:32:51.234Z,98812.64
2022-08-05T12:34:56.651Z,98815.52
2022-08-05T12:37:06.448Z,98816.52
2022-08-05T12:39:11.652Z,98816.20
2022-08-05T12:41:17.312Z,98809.92
2022-08-05T12:43:22.450Z,98808.14
2022-08-05T12:45:42.703Z,98803.39
2022-08-05T12:48:17.044Z,98794.86
2022-08-05T12:50:19.765Z,98797.39
2022-08-05T12:52:29.614Z,98800.55
2022-08-05T12:54:42.583Z,98795.38
2022-08-05T12:56:50.990Z,98795.73
2022-08-05T12:59:23.849Z,98798.64
2022-08-05T13:02:01.887Z,98801.05
2022-08-05T13:03:57.365Z,98809.86
2022-08-05T13:06:02.828Z,98801.11
2022-08-05T13:08:08.650Z,98798.31
2022-08-05T13:10:19.676Z,98795.14
2022-08-05T13:12:28.382Z,98790.16
2022-08-05T13:14:39.012Z,98792.84
2022-08-05T13:16:54.838Z,98790.86
2022-08-05T13:19:03.168Z,98794.38
2022-08-05T13:21:09.859Z,98793.19
2022-08-05T13:23:18.276Z,98785.80
2022-08-05T13:25:52.556Z,98786.73
2022-08-05T13:27:54.500Z,98782.17
2022-08-05T13:30:33.920Z,98785.87
2022-08-05T13:32:33.037Z,98781.83
2022-08-05T13:34:40.916Z,98774.65
2022-08-05T13:36:45.930Z,98781.11
2022-08-05T13:38:52.076Z,98777.84
2022-08-05T13:40:56.909Z,98780.06
2022-08-05T13:43:01.767Z,98771.55
2022-08-05T13:45:08.768Z,98770.27
2022-08-05T13:47:35.429Z,98763.39
2022-08-05T13:49:45.171Z,98769.68
2022-08-05T13:54:21.001Z,98762.70
2022-08-05T13:56:29.922Z,98765.21
2022-08-05T13:58:35.109Z,98761.15
2022-08-05T14:00:44.431Z,98761.21
2022-08-05T14:02:52.349Z,98749.80
2022-08-05T14:04:57.124Z,98749.08
2022-08-05T14:07:11.967Z,98748.10
2022-08-05T14:09:29.998Z,98749.85
2022-08-05T14:11:34.713Z,98740.92
2022-08-05T14:13:59.503Z,98739.02
2022-08-05T14:16:11.472Z,98737.05
2022-08-05T14:18:23.008Z,98734.48
2022-08-05T14:20:28.995Z,98726.46
2022-08-05T14:22:34.375Z,98730.34
2022-08-05T14:24:39.428Z,98725.17
2022-08-05T14:27:02.020Z,98721.17
2022-08-05T14:29:16.435Z,98727.77
2022-08-05T14:32:02.379Z,98730.32
2022-08-05T14:34:00.027Z,98720.91
2022-08-05T14:36:06.688Z,98711.77
2022-08-05T14:38:31.571Z,98721.34
2022-08-05T14:40:37.868Z,98719.30
2022-08-05T14:42:43.110Z,98722.85
2022-08-05T14:44:47.979Z,98725.11
2022-08-05T14:46:52.688Z,98717.30
2022-08-05T14:48:59.720Z,98713.98
2022-08-05T14:51:16.153Z,98714.17
2022-08-05T14:53:22.414Z,98709.96
2022-08-05T14:55:38.327Z,98718.84
2022-08-05T14:57:54.771Z,98718.70
2022-08-05T15:00:01.347Z,98716.64
2022-08-05T15:02:15.906Z,98716.08
2022-08-05T15:04:22.263Z,98720.42
2022-08-05T15:06:30.136Z,98721.76
2022-08-05T15:08:58.646Z,98728.40
2022-08-05T15:10:59.866Z,98727.29
2022-08-05T15:13:05.033Z,98732.52
2022-08-05T15:15:15.500Z,98731.79
2022-08-05T15:17:47.637Z,98722.84
2022-08-05T15:19:48.817Z,98723.23
2022-08-05T15:21:53.994Z,98723.33
2022-08-05T15:24:05.477Z,98727.92
2022-08-05T15:26:10.926Z,98730.50
2022-08-05T15:28:16.259Z,98727.86
2022-08-05T15:30:21.213Z,98726.96
2022-08-05T15:32:28.895Z,98726.84
2022-08-05T15:34:34.154Z,98727.21
2022-08-05T15:36:38.989Z,98719.58
2022-08-05T15:38:43.850Z,98718.55
2022-08-05T15:41:22.019Z,98713.88
2022-08-05T15:43:19.765Z,98718.23
2022-08-05T15:45:38.018Z,98711.23
2022-08-05T15:47:45.012Z,98709.04
2022-08-05T15:49:58.504Z,98705.96
2022-08-05T15:52:14.213Z,98705.25
2022-08-05T15:54:34.349Z,98712.62
2022-08-05T15:56:40.146Z,98717.55
2022-08-05T15:58:44.896Z,98713.39
2022-08-05T16:01:03.584Z,98710.42
2022-08-05T16:03:14.433Z,98716.56
2022-08-05T16:05:19.664Z,98716.45
2022-08-05T16:07:25.569Z,98712.85
2022-08-05T16:09:34.569Z,98715.15
2022-08-05T16:11:43.346Z,98715.04
2022-08-05T16:13:48.714Z,98718.09
2022-08-05T16:15:53.580Z,98716.73
2022-08-05T16:17:58.575Z,98717.23
2022-08-05T16:20:12.165Z,98716.34
2022-08-05T16:22:17.304Z,98716.48
2022-08-05T16:24:41.597Z,98719.73
2022-08-05T16:26:55.000Z,98715.97
2022-08-05T16:28:59.819Z,98716.02
2022-08-05T16:31:05.817Z,98711.71
2022-08-05T16:33:15.408Z,98717.48
2022-08-05T16:35:20.444Z,98720.98
2022-08-05T16:38:16.394Z,98718.27
2022-08-05T16:40:06.366Z,98723.54
2022-08-05T16:42:28.154Z,98723.12
2022-08-05T16:44:33.231Z,98726.75
2022-08-05T16:46:41.026Z,98725.16
2022-08-05T16:48:46.083Z,98724.84
2022-08-05T16:50:51.042Z,98720.48
2022-08-05T16:52:56.555Z,98716.23
2022-08-05T16:55:01.461Z,98719.85
2022-08-05T16:57:22.019Z,98719.02
2022-08-05T16:59:27.875Z,98717.30
2022-08-05T17:01:52.956Z,98714.95
2022-08-05T17:04:00.280Z,98711.63
2022-08-05T17:06:05.197Z,98712.23
2022-08-05T17:08:09.950Z,98710.49
2022-08-05T17:10:18.258Z,98710.70
2022-08-05T17:12:50.991Z,98709.56
2022-08-05T17:14:47.880Z,98707.57
2022-08-05T17:16:53.253Z,98704.95
2022-08-05T17:18:58.866Z,98702.08
2022-08-05T17:21:04.563Z,98702.51
2022-08-05T17:23:09.676Z,98703.13
2022-08-05T17:25:39.983Z,98699.23
2022-08-05T17:27:46.020Z,98698.56
2022-08-05T17:29:59.556Z,98701.83
2022-08-05T17:32:06.282Z,98709.63
2022-08-05T17:34:13.111Z,98706.42
2022-08-05T17:36:33.797Z,98705.14
2022-08-05T17:38:40.951Z,98703.47
2022-08-05T17:40:46.078Z,98707.42
2022-08-05T17:42:54.540Z,98712.88
2022-08-05T17:44:59.855Z,98715.30
2022-08-05T17:47:05.166Z,98717.64
2022-08-05T17:49:09.851Z,98724.13
2022-08-05T17:51:14.768Z,98727.48
2022-08-05T17:53:29.811Z,98728.25
2022-08-05T17:55:39.945Z,98729.14
2022-08-05T17:57:48.637Z,98731.19
2022-08-05T18:00:05.419Z,98730.75
2022-08-05T18:02:11.102Z,98738.15
2022-08-05T18:04:21.094Z,98736.08
2022-08-05T18:06:32.425Z,98739.73
2022-08-05T18:08:37.291Z,98739.61
2022-08-05T18:10:45.625Z,98743.38
2022-08-05T18:12:50.892Z,98744.90
2022-08-05T18:14:55.740Z,98746.41
2022-08-05T18:17:00.578Z,98742.65
2022-08-05T18:19:06.441Z,98745.13
2022-08-05T18:21:13.394Z,98749.81
2022-08-05T18:23:24.647Z,98746.87
2022-08-05T18:25:35.367Z,98749.33
2022-08-05T18:27:40.842Z,98753.70
2022-08-05T18:29:56.979Z,98756.89
2022-08-05T18:32:01.783Z,98755.11
2022-08-05T18:34:11.971Z,98758.48
2022-08-05T18:36:17.824Z,98756.34
2022-08-05T18:38:25.976Z,98759.08
2022-08-05T18:41:53.923Z,98763.09
2022-08-05T18:42:56.461Z,98768.60
2022-08-05T18:45:01.884Z,98769.59
2022-08-05T18:47:09.399Z,98768.23
2022-08-05T18:49:17.310Z,98772.08
2022-08-05T18:52:05.515Z,98770.33
2022-08-05T18:53:50.121Z,98767.95
2022-08-05T18:55:55.491Z,98765.04
2022-08-05T18:58:03.208Z,98767.27
2022-08-05T19:00:19.966Z,98768.30
2022-08-05T19:02:28.101Z,98773.42
2022-08-05T19:04:33.705Z,98779.96
2022-08-05T19:06:58.955Z,98781.39
2022-08-05T19:09:04.150Z,98785.02
2022-08-05T19:11:09.165Z,98787.86
2022-08-05T19:13:19.858Z,98785.52
2022-08-05T19:15:59.347Z,98787.80
2022-08-05T19:18:08.652Z,98786.55
2022-08-05T19:20:15.122Z,98787.95
2022-08-05T19:22:22.676Z,98790.73
2022-08-05T19:24:34.390Z,98789.83
2022-08-05T19:26:54.485Z,98791.67
2022-08-05T19:28:59.928Z,98794.85
2022-08-05T19:31:06.079Z,98796.71
2022-08-05T19:33:16.806Z,98799.06
2022-08-05T19:35:22.312Z,98802.46
2022-08-05T19:37:29.923Z,98801.36
2022-08-05T19:39:52.826Z,98799.70
2022-08-05T19:42:07.635Z,98798.52
2022-08-05T19:44:14.454Z,98801.40
2022-08-05T19:46:29.446Z,98801.83
2022-08-05T19:48:35.795Z,98802.92
2022-08-05T19:50:41.186Z,98798.79
2022-08-05T19:52:46.387Z,98797.89
2022-08-05T19:54:53.034Z,98796.54
2022-08-05T19:56:58.360Z,98794.21
2022-08-05T19:59:51.096Z,98795.97
2022-08-05T20:01:32.736Z,98793.38
2022-08-05T20:03:40.706Z,98791.25
2022-08-05T20:05:51.699Z,98794.02
2022-08-05T20:07:58.909Z,98791.31
2022-08-05T20:10:04.810Z,98796.03
2022-08-05T20:12:17.142Z,98793.83
2022-08-05T20:14:27.187Z,98792.85
2022-08-05T20:16:32.696Z,98797.22
2022-08-05T20:18:38.131Z,98793.73
2022-08-05T20:20:46.763Z,98795.42
2022-08-05T20:22:51.822Z,98793.39
2022-08-05T20:24:56.930Z,98790.48
2022-08-05T20:27:02.164Z,98794.90
2022-08-05T20:29:07.182Z,98797.56
2022-08-05T20:31:42.242Z,98806.05
2022-08-05T20:33:55.997Z,98808.95
2022-08-05T20:36:01.642Z,98809.81
2022-08-05T20:38:08.391Z,98812.68
2022-08-05T20:40:14.467Z,98807.73
2022-08-05T20:42:22.947Z,98808.61
2022-08-05T20:44:33.230Z,98806.80
2022-08-05T20:46:42.907Z,98803.20
2022-08-05T20:48:51.294Z,98803.23
2022-08-05T20:50:56.430Z,98808.02
2022-08-05T20:53:04.012Z,98808.77
2022-08-05T20:55:56.219Z,98807.67
2022-08-05T20:57:45.505Z,98809.41
2022-08-05T21:00:19.638Z,98805.13
2022-08-05T21:02:18.079Z,98805.34
2022-08-05T21:04:23.019Z,98802.70
2022-08-05T21:06:32.020Z,98803.40
2022-08-05T21:08:42.445Z,98812.41
2022-08-05T21:10:49.421Z,98810.96
2022-08-05T21:13:08.857Z,98816.40
2022-08-05T21:15:19.203Z,98810.16
2022-08-05T21:17:24.097Z,98802.64
2022-08-05T21:19:46.611Z,98801.41
2022-08-05T21:21:52.926Z,98807.61
2022-08-05T21:23:57.677Z,98808.02
2022-08-05T21:26:02.441Z,98810.30
2022-08-05T21:28:13.145Z,98813.16
2022-08-05T21:30:23.985Z,98819.53
2022-08-05T21:32:29.709Z,98821.47
2022-08-05T21:34:35.631Z,98820.92
2022-08-05T21:36:42.415Z,98823.42
2022-08-05T21:38:51.280Z,98826.34
2022-08-05T21:40:55.933Z,98825.98
2022-08-05T21:43:00.848Z,98824.06
2022-08-05T21:45:11.333Z,98824.76
2022-08-05T21:47:17.611Z,98831.20
2022-08-05T21:49:56.815Z,98834.95
2022-08-05T21:52:15.993Z,98839.42
2022-08-05T21:54:27.921Z,98840.83
2022-08-05T21:56:35.800Z,98840.35
2022-08-05T21:58:57.530Z,98844.73
2022-08-05T22:01:03.149Z,98844.02
2022-08-05T22:03:09.837Z,98843.27
2022-08-05T22:05:15.136Z,98846.98
2022-08-05T22:07:20.574Z,98850.00
2022-08-05T22:09:46.228Z,98848.58
2022-08-05T22:11:52.229Z,98855.94
2022-08-05T22:14:05.633Z,98857.65
2022-08-05T22:16:41.639Z,98859.80
2022-08-05T22:18:49.164Z,98862.47
2022-08-05T22:20:54.144Z,98859.84
2022-08-05T22:23:00.102Z,98858.99
2022-08-05T22:25:05.550Z,98859.34
2022-08-05T22:27:22.884Z,98853.10
2022-08-05T22:29:30.891Z,98855.21
2022-08-05T22:31:44.746Z,98856.66
2022-08-05T22:33:57.662Z,98858.63
2022-08-05T22:36:06.724Z,98862.59
2022-08-05T22:38:11.877Z,98868.05
2022-08-05T22:40:20.435Z,98876.02
2022-08-05T22:42:26.734Z,98878.74
2022-08-05T22:44:32.663Z,98879.55
2022-08-05T22:46:40.262Z,98883.67
2022-08-05T22:48:45.467Z,98885.33
2022-08-05T22:50:55.972Z,98889.18
2022-08-05T22:53:01.298Z,98889.14
2022-08-05T22:55:19.057Z,98895.14
2022-08-05T22:57:25.285Z,98896.02
2022-08-05T22:59:45.894Z,98898.60
2022-08-05T23:02:05.800Z,98898.17
2022-08-05T23:04:14.711Z,98903.43
2022-08-05T23:06:19.542Z,98908.47
2022-08-05T23:08:33.949Z,98920.29
2022-08-05T23:10:40.969Z,98916.13
2022-08-05T23:12:45.961Z,98914.36
2022-08-05T23:14:51.438Z,98913.19
2022-08-05T23:16:56.393Z,98913.88
2022-08-05T23:19:03.127Z,98916.78
2022-08-05T23:21:16.552Z,98917.88
2022-08-05T23:23:21.474Z,98915.46
2022-08-05T23:25:53.687Z,98907.46
2022-08-05T23:28:00.298Z,98909.87
2022-08-05T23:30:08.190Z,98907.41
2022-08-05T23:32:15.913Z,98903.36
2022-08-05T23:34:24.557Z,98907.83
2022-08-05T23:36:39.866Z,98894.30
2022-08-05T23:38:49.628Z,98889.91
2022-08-05T23:40:54.635Z,98887.77
2022-08-05T23:42:59.567Z,98883.21
2022-08-05T23:45:05.419Z,98886.45
2022-08-05T23:47:19.351Z,98888.70
2022-08-05T23:49:35.864Z,98887.17
2022-08-05T23:51:41.677Z,98888.83
2022-08-05T23:53:47.189Z,98890.59
2022-08-05T23:55:51.939Z,98897.44
2022-08-05T23:57:57.375Z,98898.08
